createdAt,value
2017-07-26T00:00:08.483Z,55.7
2017-07-26T00:00:49.567Z,56.7
2017-07-26T00:01:30.354Z,54.4
2017-07-26T00:02:11.239Z,60.2
2017-07-26T00:02:52.636Z,55.9
2017-07-26T00:03:33.415Z,57.4
2017-07-26T00:04:14.220Z,59.7
2017-07-26T00:04:55.229Z,56.3
2017-07-26T00:05:36.114Z,59.1
2017-07-26T00:06:16.993Z,61.3
2017-07-26T00:06:57.976Z,58.3
2017-07-26T00:07:38.864Z,55.0
2017-07-26T00:08:19.642Z,65.2
2017-07-26T00:09:00.842Z,72.1
2017-07-26T00:09:41.729Z,63.2
2017-07-26T00:10:22.510Z,65.0
2017-07-26T00:11:03.497Z,62.2
2017-07-26T00:11:44.679Z,61.9
2017-07-26T00:12:25.667Z,63.6
2017-07-26T00:13:06.547Z,73.3
2017-07-26T00:13:47.439Z,66.2
2017-07-26T00:14:28.421Z,59.2
2017-07-26T00:15:09.306Z,54.1
2017-07-26T00:15:50.099Z,61.4
2017-07-26T00:16:31.181Z,69.8
2017-07-26T00:17:12.171Z,69.8
2017-07-26T00:17:52.951Z,62.7
2017-07-26T00:18:33.839Z,70.5
2017-07-26T00:19:14.727Z,66.0
2017-07-26T00:19:55.612Z,66.7
2017-07-26T00:20:36.502Z,60.8
2017-07-26T00:21:18.036Z,66.4
2017-07-26T00:21:58.827Z,69.1
2017-07-26T00:22:39.810Z,68.1
2017-07-26T00:23:20.802Z,60.9
2017-07-26T00:24:01.689Z,63.1
2017-07-26T00:24:42.484Z,63.1
2017-07-26T00:25:23.576Z,61.7
2017-07-26T00:26:07.772Z,58.5
2017-07-26T00:26:48.748Z,61.0
2017-07-26T00:27:29.631Z,64.3
2017-07-26T00:28:10.610Z,58.8
2017-07-26T00:28:51.399Z,60.0
2017-07-26T00:29:32.383Z,63.7
2017-07-26T00:30:13.272Z,64.2
2017-07-26T00:30:54.066Z,56.8
2017-07-26T00:31:35.049Z,58.5
2017-07-26T00:32:15.830Z,66.2
2017-07-26T00:32:57.011Z,70.6
2017-07-26T00:33:37.799Z,66.7
2017-07-26T00:34:18.691Z,62.6
2017-07-26T00:34:59.679Z,67.1
2017-07-26T00:35:40.463Z,71.9
2017-07-26T00:36:21.454Z,78.2
2017-07-26T00:37:02.254Z,83.5
2017-07-26T00:37:43.318Z,82.8
2017-07-26T00:38:24.097Z,76.3
2017-07-26T00:39:05.095Z,74.6
2017-07-26T00:39:46.083Z,76.0
2017-07-26T00:40:27.071Z,77.0
2017-07-26T00:41:07.956Z,86.0
2017-07-26T00:41:48.839Z,93.6
2017-07-26T00:42:29.731Z,96.6
2017-07-26T00:43:10.621Z,100.9
2017-07-26T00:43:51.507Z,100.9
2017-07-26T00:44:32.298Z,100.9
2017-07-26T00:45:13.992Z,103.9
2017-07-26T00:45:54.882Z,102.9
2017-07-26T00:46:35.769Z,105.1
2017-07-26T00:47:16.755Z,102.8
2017-07-26T00:47:57.739Z,101.7
2017-07-26T00:48:38.627Z,103.5
2017-07-26T00:49:19.515Z,98.0
2017-07-26T00:50:00.589Z,91.0
2017-07-26T00:50:41.492Z,89.7
2017-07-26T00:51:22.369Z,77.9
2017-07-26T00:52:03.152Z,82.2
2017-07-26T00:52:43.941Z,82.5
2017-07-26T00:53:24.728Z,76.6
2017-07-26T00:54:05.813Z,78.0
2017-07-26T00:54:48.754Z,77.3
2017-07-26T00:55:29.643Z,76.8
2017-07-26T00:56:10.534Z,74.5
2017-07-26T00:56:51.525Z,75.8
2017-07-26T00:57:32.504Z,70.3
2017-07-26T00:58:13.492Z,68.4
2017-07-26T00:58:54.376Z,73.6
2017-07-26T00:59:35.260Z,66.2
2017-07-26T01:00:16.145Z,60.4
2017-07-26T01:00:57.023Z,63.3
2017-07-26T01:01:37.909Z,65.0
2017-07-26T01:02:18.990Z,65.7
2017-07-26T01:02:59.872Z,63.5
2017-07-26T01:03:41.043Z,67.6
2017-07-26T01:04:21.932Z,59.1
2017-07-26T01:05:02.836Z,52.5
2017-07-26T01:05:43.619Z,52.0
2017-07-26T01:06:24.710Z,56.0
2017-07-26T01:07:05.687Z,64.1
2017-07-26T01:07:46.471Z,56.9
2017-07-26T01:08:27.254Z,60.2
2017-07-26T01:09:08.337Z,54.3
2017-07-26T01:09:49.123Z,53.2
2017-07-26T01:10:30.103Z,54.9
2017-07-26T01:11:10.887Z,61.2
2017-07-26T01:11:51.868Z,57.8
2017-07-26T01:12:32.758Z,56.5
2017-07-26T01:13:13.640Z,55.8
2017-07-26T01:13:54.525Z,54.2
2017-07-26T01:14:35.310Z,63.5
2017-07-26T01:15:16.193Z,59.3
2017-07-26T01:15:57.076Z,54.8
2017-07-26T01:16:38.266Z,45.8
2017-07-26T01:17:19.048Z,54.4
2017-07-26T01:18:00.134Z,55.0
2017-07-26T01:18:40.918Z,53.0
2017-07-26T01:19:21.809Z,45.8
2017-07-26T01:20:02.594Z,45.0
2017-07-26T01:20:43.584Z,50.4
2017-07-26T01:21:24.554Z,54.7
2017-07-26T01:22:05.846Z,48.7
2017-07-26T01:22:46.731Z,46.7
2017-07-26T01:23:27.607Z,46.4
2017-07-26T01:24:08.596Z,44.6
2017-07-26T01:24:49.480Z,41.1
2017-07-26T01:25:30.362Z,44.7
2017-07-26T01:26:11.346Z,43.8
2017-07-26T01:26:52.134Z,45.9
2017-07-26T01:27:33.024Z,47.0
2017-07-26T01:28:13.904Z,45.6
2017-07-26T01:28:54.994Z,48.6
2017-07-26T01:29:35.972Z,46.6
2017-07-26T01:30:16.962Z,44.2
2017-07-26T01:30:58.638Z,46.6
2017-07-26T01:31:39.827Z,45.4
2017-07-26T01:32:20.813Z,43.3
2017-07-26T01:33:01.802Z,44.2
2017-07-26T01:33:42.698Z,41.9
2017-07-26T01:34:23.580Z,38.8
2017-07-26T01:35:04.571Z,41.0
2017-07-26T01:35:45.367Z,42.3
2017-07-26T01:36:26.258Z,48.0
2017-07-26T01:37:07.144Z,41.7
2017-07-26T01:37:48.136Z,40.3
2017-07-26T01:38:28.926Z,40.8
2017-07-26T01:39:09.907Z,40.5
2017-07-26T01:39:50.893Z,40.7
2017-07-26T01:40:31.674Z,40.0
2017-07-26T01:41:12.657Z,40.1
2017-07-26T01:41:53.447Z,40.8
2017-07-26T01:42:34.434Z,38.6
2017-07-26T01:43:15.234Z,39.3
2017-07-26T01:43:56.118Z,40.8
2017-07-26T01:44:37.100Z,41.9
2017-07-26T01:45:17.993Z,41.5
2017-07-26T01:45:58.871Z,43.4
2017-07-26T01:46:39.866Z,39.2
2017-07-26T01:47:21.048Z,39.3
2017-07-26T01:48:02.037Z,45.7
2017-07-26T01:48:42.815Z,47.6
2017-07-26T01:49:23.703Z,44.3
2017-07-26T01:50:04.683Z,43.7
2017-07-26T01:50:48.069Z,40.9
2017-07-26T01:51:29.067Z,41.4
2017-07-26T01:52:10.049Z,45.7
2017-07-26T01:52:51.039Z,39.7
2017-07-26T01:53:32.027Z,42.7
2017-07-26T01:54:12.815Z,46.0
2017-07-26T01:54:56.365Z,37.1
2017-07-26T01:55:37.552Z,43.0
2017-07-26T01:56:18.544Z,38.5
2017-07-26T01:56:59.740Z,39.3
2017-07-26T01:57:40.729Z,44.1
2017-07-26T01:58:21.705Z,41.9
2017-07-26T01:59:02.699Z,41.2
2017-07-26T01:59:43.586Z,37.1
2017-07-26T02:00:24.372Z,41.0
2017-07-26T02:01:05.255Z,42.9
2017-07-26T02:01:46.341Z,46.2
2017-07-26T02:02:27.136Z,40.6
2017-07-26T02:03:08.020Z,41.5
2017-07-26T02:03:48.903Z,39.5
2017-07-26T02:04:29.786Z,43.9
2017-07-26T02:05:10.675Z,49.7
2017-07-26T02:05:51.660Z,45.8
2017-07-26T02:06:32.548Z,49.7
2017-07-26T02:07:13.541Z,40.1
2017-07-26T02:07:54.326Z,46.7
2017-07-26T02:08:35.111Z,47.1
2017-07-26T02:09:16.094Z,44.9
2017-07-26T02:09:57.185Z,45.8
2017-07-26T02:10:38.074Z,47.1
2017-07-26T02:11:18.960Z,50.1
2017-07-26T02:11:59.852Z,44.5
2017-07-26T02:12:40.845Z,44.9
2017-07-26T02:13:21.938Z,46.5
2017-07-26T02:14:03.113Z,48.0
2017-07-26T02:14:44.096Z,49.4
2017-07-26T02:15:25.283Z,46.4
2017-07-26T02:16:06.375Z,43.5
2017-07-26T02:16:47.165Z,48.1
2017-07-26T02:17:28.146Z,47.0
2017-07-26T02:18:08.937Z,45.7
2017-07-26T02:18:49.820Z,43.8
2017-07-26T02:19:30.605Z,48.4
2017-07-26T02:20:11.598Z,44.0
2017-07-26T02:20:52.478Z,48.3
2017-07-26T02:21:33.374Z,50.2
2017-07-26T02:22:14.262Z,50.5
2017-07-26T02:22:55.046Z,46.6
2017-07-26T02:23:35.932Z,46.9
2017-07-26T02:24:17.112Z,52.6
2017-07-26T02:24:58.299Z,46.7
2017-07-26T02:25:39.384Z,45.1
2017-07-26T02:26:20.179Z,48.3
2017-07-26T02:27:01.158Z,48.7
2017-07-26T02:27:42.162Z,45.7
2017-07-26T02:28:23.045Z,47.7
2017-07-26T02:29:03.937Z,55.5
2017-07-26T02:29:44.820Z,52.4
2017-07-26T02:30:25.616Z,50.1
2017-07-26T02:31:06.597Z,48.0
2017-07-26T02:31:47.480Z,54.9
2017-07-26T02:32:28.368Z,52.4
2017-07-26T02:33:09.151Z,49.8
2017-07-26T02:33:49.934Z,50.6
2017-07-26T02:34:31.025Z,48.3
2017-07-26T02:35:11.817Z,49.1
2017-07-26T02:35:52.803Z,54.3
2017-07-26T02:36:33.689Z,53.2
2017-07-26T02:37:14.784Z,51.5
2017-07-26T02:37:55.769Z,51.3
2017-07-26T02:38:36.657Z,51.6
2017-07-26T02:39:17.545Z,53.1
2017-07-26T02:39:58.325Z,55.3
2017-07-26T02:40:39.112Z,48.4
2017-07-26T02:41:19.889Z,51.1
2017-07-26T02:42:00.679Z,47.9
2017-07-26T02:42:41.658Z,53.0
2017-07-26T02:43:22.547Z,54.4
2017-07-26T02:44:03.434Z,55.2
2017-07-26T02:44:45.720Z,52.8
2017-07-26T02:45:26.816Z,52.8
2017-07-26T02:46:07.997Z,51.7
2017-07-26T02:46:48.890Z,53.8
2017-07-26T02:47:30.569Z,54.3
2017-07-26T02:48:11.454Z,60.3
2017-07-26T02:48:52.683Z,57.5
2017-07-26T02:49:34.548Z,55.5
2017-07-26T02:50:15.541Z,52.9
2017-07-26T02:50:56.623Z,56.0
2017-07-26T02:51:37.611Z,56.9
2017-07-26T02:52:18.421Z,54.5
2017-07-26T02:52:59.584Z,52.3
2017-07-26T02:53:40.472Z,53.9
2017-07-26T02:54:21.671Z,57.5
2017-07-26T02:55:02.565Z,53.2
2017-07-26T02:55:43.446Z,57.1
2017-07-26T02:56:24.335Z,57.7
2017-07-26T02:57:05.217Z,59.8
2017-07-26T02:57:46.003Z,63.8
2017-07-26T02:58:26.892Z,57.3
2017-07-26T02:59:07.969Z,62.6
2017-07-26T02:59:48.762Z,60.2
2017-07-26T03:00:29.744Z,61.6
2017-07-26T03:01:10.530Z,53.0
2017-07-26T03:01:51.423Z,61.7
2017-07-26T03:02:32.308Z,61.9
2017-07-26T03:03:13.190Z,64.8
2017-07-26T03:03:53.972Z,60.5
2017-07-26T03:04:34.856Z,61.5
2017-07-26T03:05:15.644Z,60.3
2017-07-26T03:05:56.727Z,62.1
2017-07-26T03:06:37.518Z,53.1
2017-07-26T03:07:18.401Z,56.9
2017-07-26T03:07:59.287Z,57.1
2017-07-26T03:08:40.177Z,59.5
2017-07-26T03:09:20.977Z,57.9
2017-07-26T03:10:01.859Z,64.9
2017-07-26T03:10:42.957Z,66.7
2017-07-26T03:11:23.943Z,65.3
2017-07-26T03:12:04.727Z,64.5
2017-07-26T03:12:45.515Z,64.7
2017-07-26T03:13:26.494Z,66.8
2017-07-26T03:14:07.492Z,59.9
2017-07-26T03:14:48.270Z,55.6
2017-07-26T03:15:29.157Z,61.0
2017-07-26T03:16:10.147Z,64.4
2017-07-26T03:16:51.039Z,66.3
2017-07-26T03:17:31.820Z,58.3
2017-07-26T03:18:12.704Z,62.8
2017-07-26T03:18:53.690Z,70.2
2017-07-26T03:19:34.479Z,65.6
2017-07-26T03:20:15.465Z,59.0
2017-07-26T03:20:56.255Z,63.5
2017-07-26T03:21:37.241Z,72.1
2017-07-26T03:22:18.223Z,62.6
2017-07-26T03:22:59.108Z,56.8
2017-07-26T03:23:39.902Z,56.3
2017-07-26T03:24:20.885Z,59.5
2017-07-26T03:25:01.769Z,56.6
2017-07-26T03:25:42.755Z,62.9
2017-07-26T03:26:23.741Z,61.1
2017-07-26T03:27:04.633Z,61.2
2017-07-26T03:27:45.416Z,59.2
2017-07-26T03:28:26.498Z,56.0
2017-07-26T03:29:07.282Z,65.3
2017-07-26T03:29:48.275Z,59.2
2017-07-26T03:30:29.360Z,54.0
2017-07-26T03:31:10.355Z,61.3
2017-07-26T03:31:51.443Z,61.4
2017-07-26T03:32:32.333Z,53.2
2017-07-26T03:33:13.116Z,69.1
2017-07-26T03:33:54.205Z,64.3
2017-07-26T03:34:35.092Z,64.7
2017-07-26T03:35:15.981Z,64.7
2017-07-26T03:35:56.775Z,62.3
2017-07-26T03:36:37.562Z,63.6
2017-07-26T03:37:18.347Z,59.6
2017-07-26T03:37:59.337Z,59.6
2017-07-26T03:38:40.222Z,56.3
2017-07-26T03:39:21.107Z,59.5
2017-07-26T03:40:02.099Z,62.0
2017-07-26T03:40:43.188Z,61.6
2017-07-26T03:41:24.185Z,66.2
2017-07-26T03:42:05.167Z,71.2
2017-07-26T03:42:48.065Z,66.6
2017-07-26T03:43:28.846Z,75.9
2017-07-26T03:44:09.632Z,70.7
2017-07-26T03:44:50.519Z,66.0
2017-07-26T03:45:31.606Z,68.8
2017-07-26T03:46:12.800Z,60.8
2017-07-26T03:46:53.981Z,72.5
2017-07-26T03:47:34.969Z,74.1
2017-07-26T03:48:15.949Z,67.1
2017-07-26T03:48:56.843Z,68.1
2017-07-26T03:49:37.626Z,63.2
2017-07-26T03:50:18.615Z,75.9
2017-07-26T03:50:59.612Z,77.9
2017-07-26T03:51:40.599Z,78.4
2017-07-26T03:52:21.892Z,72.9
2017-07-26T03:53:03.080Z,67.4
2017-07-26T03:53:43.966Z,69.5
2017-07-26T03:54:24.750Z,62.6
2017-07-26T03:55:05.756Z,66.8
2017-07-26T03:55:46.745Z,78.3
2017-07-26T03:56:27.737Z,65.4
2017-07-26T03:57:08.732Z,66.9
2017-07-26T03:57:49.715Z,65.8
2017-07-26T03:58:30.705Z,79.4
2017-07-26T03:59:11.687Z,80.1
2017-07-26T03:59:52.575Z,72.9
2017-07-26T04:00:33.568Z,67.1
2017-07-26T04:01:14.552Z,70.0
2017-07-26T04:01:55.552Z,62.2
2017-07-26T04:02:36.539Z,71.2
2017-07-26T04:03:19.525Z,68.5
2017-07-26T04:04:00.513Z,70.5
2017-07-26T04:04:41.407Z,71.2
2017-07-26T04:05:22.418Z,60.3
2017-07-26T04:06:03.315Z,72.0
2017-07-26T04:06:44.219Z,70.9
2017-07-26T04:07:25.104Z,73.4
2017-07-26T04:08:05.999Z,75.2
2017-07-26T04:08:47.102Z,74.2
2017-07-26T04:09:28.189Z,67.3
2017-07-26T04:10:09.088Z,76.3
2017-07-26T04:10:49.977Z,78.2
2017-07-26T04:11:30.967Z,70.2
2017-07-26T04:12:11.953Z,75.9
2017-07-26T04:12:52.847Z,75.7
2017-07-26T04:13:33.840Z,71.1
2017-07-26T04:14:14.732Z,73.6
2017-07-26T04:14:55.821Z,74.1
2017-07-26T04:15:36.921Z,66.2
2017-07-26T04:16:17.908Z,62.8
2017-07-26T04:16:58.890Z,69.9
2017-07-26T04:17:39.978Z,74.4
2017-07-26T04:18:21.169Z,70.0
2017-07-26T04:19:02.155Z,61.2
2017-07-26T04:19:43.542Z,68.9
2017-07-26T04:20:24.529Z,68.8
2017-07-26T04:21:05.526Z,67.9
2017-07-26T04:21:46.415Z,73.2
2017-07-26T04:22:27.405Z,71.9
2017-07-26T04:23:08.296Z,77.7
2017-07-26T04:23:49.288Z,68.5
2017-07-26T04:24:30.476Z,66.5
2017-07-26T04:25:11.478Z,71.8
2017-07-26T04:25:52.765Z,76.3
2017-07-26T04:26:33.649Z,69.4
2017-07-26T04:27:14.441Z,61.3
2017-07-26T04:27:55.333Z,65.4
2017-07-26T04:28:36.223Z,64.8
2017-07-26T04:29:17.317Z,59.4
2017-07-26T04:29:58.403Z,64.2
2017-07-26T04:30:39.406Z,64.2
2017-07-26T04:31:20.491Z,59.3
2017-07-26T04:32:01.592Z,64.1
2017-07-26T04:32:42.486Z,63.4
2017-07-26T04:33:23.483Z,68.5
2017-07-26T04:34:04.574Z,68.9
2017-07-26T04:34:45.468Z,71.8
2017-07-26T04:35:26.356Z,65.8
2017-07-26T04:36:07.444Z,62.8
2017-07-26T04:36:48.337Z,57.6
2017-07-26T04:37:29.323Z,62.1
2017-07-26T04:38:10.339Z,60.8
2017-07-26T04:38:51.210Z,68.4
2017-07-26T04:39:32.099Z,74.5
2017-07-26T04:40:12.987Z,66.0
2017-07-26T04:40:54.070Z,68.1
2017-07-26T04:41:34.864Z,66.7
2017-07-26T04:42:15.753Z,63.3
2017-07-26T04:42:56.744Z,66.1
2017-07-26T04:43:37.837Z,65.9
2017-07-26T04:44:18.821Z,60.7
2017-07-26T04:44:59.824Z,65.0
2017-07-26T04:45:40.914Z,56.8
2017-07-26T04:46:21.811Z,58.1
2017-07-26T04:47:02.892Z,63.9
2017-07-26T04:47:43.701Z,65.6
2017-07-26T04:48:24.703Z,65.6
2017-07-26T04:49:09.292Z,58.7
2017-07-26T04:49:52.982Z,64.8
2017-07-26T04:50:33.869Z,64.7
2017-07-26T04:51:14.762Z,70.2
2017-07-26T04:51:55.748Z,65.6
2017-07-26T04:52:36.636Z,68.1
2017-07-26T04:53:17.528Z,63.4
2017-07-26T04:53:58.413Z,63.1
2017-07-26T04:54:39.304Z,58.5
2017-07-26T04:55:20.393Z,62.3
2017-07-26T04:56:01.284Z,58.2
2017-07-26T04:56:42.370Z,52.8
2017-07-26T04:57:23.667Z,56.4
2017-07-26T04:58:04.756Z,59.7
2017-07-26T04:58:45.644Z,60.2
2017-07-26T04:59:26.838Z,59.2
2017-07-26T05:00:07.935Z,58.5
2017-07-26T05:00:49.028Z,60.8
2017-07-26T05:01:30.123Z,55.4
2017-07-26T05:02:11.017Z,54.5
2017-07-26T05:02:51.914Z,55.4
2017-07-26T05:03:32.902Z,55.0
2017-07-26T05:04:13.899Z,57.4
2017-07-26T05:04:54.788Z,62.5
2017-07-26T05:05:35.678Z,61.3
2017-07-26T05:06:16.666Z,57.7
2017-07-26T05:06:57.555Z,61.1
2017-07-26T05:07:38.549Z,65.7
2017-07-26T05:08:19.443Z,66.3
2017-07-26T05:09:00.536Z,59.9
2017-07-26T05:09:41.524Z,62.5
2017-07-26T05:10:22.420Z,57.9
2017-07-26T05:11:03.409Z,63.0
2017-07-26T05:11:44.107Z,72.8
2017-07-26T05:12:25.203Z,60.9
2017-07-26T05:13:05.992Z,54.6
2017-07-26T05:13:46.985Z,55.9
2017-07-26T05:14:27.969Z,62.9
2017-07-26T05:15:08.963Z,66.7
2017-07-26T05:15:50.362Z,64.7
2017-07-26T05:16:31.247Z,58.4
2017-07-26T05:17:12.138Z,61.3
2017-07-26T05:17:53.024Z,60.1
2017-07-26T05:18:34.017Z,66.9
2017-07-26T05:19:14.902Z,65.4
2017-07-26T05:19:55.898Z,64.7
2017-07-26T05:20:36.886Z,70.4
2017-07-26T05:21:17.892Z,69.0
2017-07-26T05:21:58.901Z,62.9
2017-07-26T05:22:39.898Z,66.7
2017-07-26T05:23:20.692Z,63.6
2017-07-26T05:24:01.583Z,64.0
2017-07-26T05:24:42.679Z,59.4
2017-07-26T05:25:24.176Z,64.3
2017-07-26T05:26:05.071Z,63.1
2017-07-26T05:26:45.966Z,66.9
2017-07-26T05:27:26.856Z,67.8
2017-07-26T05:28:07.745Z,65.8
2017-07-26T05:28:48.737Z,64.8
2017-07-26T05:29:29.631Z,62.8
2017-07-26T05:30:10.725Z,61.8
2017-07-26T05:30:51.821Z,63.4
2017-07-26T05:31:33.219Z,67.9
2017-07-26T05:32:14.110Z,70.1
2017-07-26T05:32:55.004Z,65.2
2017-07-26T05:33:36.195Z,66.4
2017-07-26T05:34:17.211Z,69.1
2017-07-26T05:34:58.306Z,61.8
2017-07-26T05:35:39.497Z,56.0
2017-07-26T05:36:20.395Z,62.5
2017-07-26T05:37:01.285Z,63.1
2017-07-26T05:37:42.274Z,66.9
2017-07-26T05:38:23.361Z,61.1
2017-07-26T05:39:04.358Z,64.2
2017-07-26T05:39:45.344Z,61.3
2017-07-26T05:40:26.332Z,61.7
2017-07-26T05:41:07.542Z,64.5
2017-07-26T05:41:48.525Z,59.5
2017-07-26T05:42:29.526Z,62.4
2017-07-26T05:43:10.605Z,62.2
2017-07-26T05:43:51.698Z,67.1
2017-07-26T05:44:32.701Z,61.1
2017-07-26T05:45:13.694Z,61.5
2017-07-26T05:45:54.684Z,58.8
2017-07-26T05:46:35.678Z,57.3
2017-07-26T05:47:16.575Z,57.3
2017-07-26T05:47:57.663Z,61.0
2017-07-26T05:48:38.860Z,58.2
2017-07-26T05:49:19.746Z,65.0
2017-07-26T05:50:00.742Z,56.3
2017-07-26T05:50:41.653Z,55.6
2017-07-26T05:51:22.733Z,58.0
2017-07-26T05:52:03.825Z,57.5
2017-07-26T05:52:44.710Z,50.1
2017-07-26T05:53:25.911Z,59.3
2017-07-26T05:54:06.899Z,59.6
2017-07-26T05:54:47.794Z,53.6
2017-07-26T05:55:29.070Z,51.5
2017-07-26T05:56:10.359Z,51.1
2017-07-26T05:56:51.455Z,53.3
2017-07-26T05:57:32.539Z,57.8
2017-07-26T05:58:13.530Z,50.6
2017-07-26T05:58:54.519Z,50.5
2017-07-26T05:59:35.515Z,50.4
2017-07-26T06:00:16.609Z,46.2
2017-07-26T06:00:57.601Z,43.4
2017-07-26T06:01:38.595Z,40.4
2017-07-26T06:02:19.485Z,44.5
2017-07-26T06:03:00.475Z,45.2
2017-07-26T06:03:41.425Z,43.4
2017-07-26T06:04:22.319Z,44.4
2017-07-26T06:05:03.417Z,43.0
2017-07-26T06:05:44.613Z,39.8
2017-07-26T06:06:25.902Z,35.1
2017-07-26T06:07:06.798Z,35.1
2017-07-26T06:07:47.797Z,33.2
2017-07-26T06:08:28.894Z,31.3
2017-07-26T06:09:09.899Z,30.0
2017-07-26T06:09:50.790Z,32.4
2017-07-26T06:10:31.783Z,28.4
2017-07-26T06:11:12.673Z,32.8
2017-07-26T06:11:53.865Z,34.0
2017-07-26T06:12:35.161Z,37.8
2017-07-26T06:13:16.156Z,29.6
2017-07-26T06:13:57.453Z,30.3
2017-07-26T06:14:38.460Z,28.6
2017-07-26T06:15:19.549Z,29.6
2017-07-26T06:16:00.546Z,27.4
2017-07-26T06:16:41.632Z,26.5
2017-07-26T06:17:22.730Z,26.2
2017-07-26T06:18:03.813Z,28.3
2017-07-26T06:18:44.904Z,29.0
2017-07-26T06:19:25.903Z,29.3
2017-07-26T06:20:06.898Z,25.6
2017-07-26T06:20:48.188Z,25.4
2017-07-26T06:21:30.263Z,26.4
2017-07-26T06:22:11.894Z,20.6
2017-07-26T06:22:52.896Z,22.2
2017-07-26T06:23:33.797Z,20.9
2017-07-26T06:24:14.884Z,22.7
2017-07-26T06:24:55.783Z,20.4
2017-07-26T06:25:36.889Z,23.8
2017-07-26T06:26:17.984Z,23.3
2017-07-26T06:26:59.082Z,21.9
2017-07-26T06:27:40.084Z,20.9
2017-07-26T06:28:21.178Z,17.8
2017-07-26T06:29:02.268Z,17.2
2017-07-26T06:29:43.169Z,17.2
2017-07-26T06:30:24.366Z,17.5
2017-07-26T06:31:05.249Z,15.1
2017-07-26T06:31:46.251Z,16.6
2017-07-26T06:32:27.241Z,18.4
2017-07-26T06:33:08.238Z,17.7
2017-07-26T06:33:49.143Z,16.6
2017-07-26T06:34:30.234Z,17.8
2017-07-26T06:35:11.237Z,17.3
2017-07-26T06:35:52.128Z,19.2
2017-07-26T06:36:33.019Z,15.8
2017-07-26T06:37:14.013Z,15.2
2017-07-26T06:37:55.009Z,18.8
2017-07-26T06:38:36.198Z,18.1
2017-07-26T06:39:17.389Z,19.6
2017-07-26T06:39:58.485Z,18.2
2017-07-26T06:40:39.470Z,21.8
2017-07-26T06:41:20.371Z,22.7
2017-07-26T06:42:01.558Z,13.8
2017-07-26T06:42:42.655Z,15.4
2017-07-26T06:43:23.557Z,18.3
2017-07-26T06:44:04.540Z,14.9
2017-07-26T06:44:45.532Z,12.8
2017-07-26T06:45:26.428Z,12.7
2017-07-26T06:46:07.935Z,15.5
2017-07-26T06:46:49.026Z,17.2
2017-07-26T06:47:30.120Z,16.3
2017-07-26T06:48:11.414Z,16.6
2017-07-26T06:48:52.394Z,15.7
2017-07-26T06:49:33.895Z,14.3
2017-07-26T06:50:14.991Z,13.4
2017-07-26T06:50:55.889Z,11.8
2017-07-26T06:51:36.787Z,14.7
2017-07-26T06:52:17.874Z,17.2
2017-07-26T06:52:58.869Z,12.6
2017-07-26T06:53:39.968Z,12.9
2017-07-26T06:54:21.169Z,12.1
2017-07-26T06:55:02.165Z,14.1
2017-07-26T06:55:43.257Z,14.2
2017-07-26T06:56:24.076Z,14.0
2017-07-26T06:57:04.968Z,11.9
2017-07-26T06:57:45.862Z,10.6
2017-07-26T06:58:26.849Z,15.0
2017-07-26T06:59:07.852Z,10.6
2017-07-26T06:59:48.738Z,12.2
2017-07-26T07:00:29.761Z,14.7
2017-07-26T07:01:10.652Z,15.1
2017-07-26T07:01:51.749Z,14.2
2017-07-26T07:02:32.947Z,12.6
2017-07-26T07:03:13.844Z,13.1
2017-07-26T07:03:54.839Z,13.9
2017-07-26T07:04:35.734Z,13.9
2017-07-26T07:05:16.730Z,12.5
2017-07-26T07:05:57.725Z,10.2
2017-07-26T07:06:38.731Z,14.3
2017-07-26T07:07:19.829Z,13.7
2017-07-26T07:08:00.827Z,11.5
2017-07-26T07:08:41.826Z,11.9
2017-07-26T07:09:22.716Z,14.8
2017-07-26T07:10:03.624Z,11.5
2017-07-26T07:10:45.106Z,12.2
2017-07-26T07:11:26.097Z,9.7
2017-07-26T07:12:06.995Z,12.8
2017-07-26T07:12:47.987Z,15.1
2017-07-26T07:13:28.979Z,12.4
2017-07-26T07:14:09.965Z,13.0
2017-07-26T07:14:52.855Z,11.4
2017-07-26T07:15:33.953Z,14.7
2017-07-26T07:16:14.853Z,12.3
2017-07-26T07:16:55.946Z,15.6
2017-07-26T07:17:36.940Z,15.0
2017-07-26T07:18:17.934Z,13.9
2017-07-26T07:18:58.829Z,15.8
2017-07-26T07:19:39.841Z,11.3
2017-07-26T07:20:20.832Z,10.8
2017-07-26T07:21:01.732Z,11.6
2017-07-26T07:21:42.717Z,11.4
2017-07-26T07:22:23.716Z,10.5
2017-07-26T07:23:04.717Z,13.6
2017-07-26T07:23:45.900Z,12.0
2017-07-26T07:24:27.096Z,12.1
2017-07-26T07:25:07.984Z,7.7
2017-07-26T07:25:49.179Z,9.4
2017-07-26T07:26:30.079Z,10.2
2017-07-26T07:27:11.072Z,8.6
2017-07-26T07:27:52.068Z,8.2
2017-07-26T07:28:33.052Z,10.3
2017-07-26T07:29:14.452Z,13.0
2017-07-26T07:29:55.349Z,8.7
2017-07-26T07:30:36.541Z,9.1
2017-07-26T07:31:17.546Z,12.7
2017-07-26T07:31:58.534Z,9.5
2017-07-26T07:32:39.535Z,10.6
2017-07-26T07:33:20.740Z,9.7
2017-07-26T07:34:01.836Z,11.9
2017-07-26T07:34:43.177Z,9.0
2017-07-26T07:35:24.067Z,9.7
2017-07-26T07:36:04.975Z,9.9
2017-07-26T07:36:45.987Z,9.6
2017-07-26T07:37:27.187Z,9.4
2017-07-26T07:38:08.082Z,10.0
2017-07-26T07:38:49.082Z,8.6
2017-07-26T07:39:29.974Z,6.1
2017-07-26T07:40:10.870Z,7.1
2017-07-26T07:40:51.871Z,9.7
2017-07-26T07:41:32.770Z,9.2
2017-07-26T07:42:13.867Z,8.6
2017-07-26T07:42:54.964Z,8.1
2017-07-26T07:43:35.863Z,7.4
2017-07-26T07:44:16.756Z,6.8
2017-07-26T07:44:58.666Z,9.3
2017-07-26T07:45:39.669Z,9.5
2017-07-26T07:46:20.560Z,8.9
2017-07-26T07:47:01.769Z,11.3
2017-07-26T07:47:42.656Z,6.7
2017-07-26T07:48:23.656Z,5.8
2017-07-26T07:49:04.843Z,5.7
2017-07-26T07:49:45.746Z,6.9
2017-07-26T07:50:26.549Z,8.8
2017-07-26T07:51:07.572Z,5.7
2017-07-26T07:51:48.771Z,8.6
2017-07-26T07:52:29.763Z,9.2
2017-07-26T07:53:10.669Z,7.0
2017-07-26T07:53:51.661Z,5.9
2017-07-26T07:54:32.660Z,8.0
2017-07-26T07:55:13.696Z,6.8
2017-07-26T07:55:54.698Z,7.4
2017-07-26T07:56:35.598Z,11.5
2017-07-26T07:57:16.594Z,6.7
2017-07-26T07:57:57.693Z,10.5
2017-07-26T07:58:38.789Z,9.2
2017-07-26T07:59:19.688Z,9.6
2017-07-26T08:00:00.785Z,6.9
2017-07-26T08:00:41.778Z,5.1
2017-07-26T08:01:22.884Z,5.1
2017-07-26T08:02:03.871Z,5.1
2017-07-26T08:02:45.175Z,6.3
2017-07-26T08:03:26.177Z,7.4
2017-07-26T08:04:07.069Z,9.2
2017-07-26T08:04:48.072Z,7.7
2017-07-26T08:05:28.980Z,9.8
2017-07-26T08:06:09.984Z,11.2
2017-07-26T08:06:51.072Z,6.6
2017-07-26T08:07:32.081Z,6.5
2017-07-26T08:08:12.980Z,5.5
2017-07-26T08:08:53.975Z,8.3
2017-07-26T08:09:35.072Z,5.9
2017-07-26T08:10:16.466Z,7.0
2017-07-26T08:10:57.369Z,6.8
2017-07-26T08:11:38.365Z,5.2
2017-07-26T08:12:19.264Z,7.8
2017-07-26T08:13:00.364Z,9.2
2017-07-26T08:13:41.440Z,10.2
2017-07-26T08:14:22.342Z,5.8
2017-07-26T08:15:03.454Z,7.9
2017-07-26T08:15:44.554Z,9.2
2017-07-26T08:16:25.654Z,7.6
2017-07-26T08:17:06.756Z,6.3
2017-07-26T08:17:47.753Z,8.2
2017-07-26T08:18:28.652Z,10.9
2017-07-26T08:19:09.752Z,11.1
2017-07-26T08:19:50.656Z,10.1
2017-07-26T08:20:31.655Z,7.3
2017-07-26T08:21:12.751Z,7.4
2017-07-26T08:21:53.649Z,7.8
2017-07-26T08:22:34.549Z,6.5
2017-07-26T08:23:15.445Z,6.2
2017-07-26T08:23:56.446Z,6.6
2017-07-26T08:24:37.444Z,11.2
2017-07-26T08:25:18.452Z,10.6
2017-07-26T08:25:59.551Z,6.1
2017-07-26T08:26:40.656Z,4.6
2017-07-26T08:27:21.650Z,5.2
2017-07-26T08:28:03.058Z,6.1
2017-07-26T08:28:44.162Z,4.8
2017-07-26T08:29:25.359Z,5.5
2017-07-26T08:30:06.263Z,7.7
2017-07-26T08:30:47.273Z,8.5
2017-07-26T08:31:28.472Z,7.1
2017-07-26T08:32:10.374Z,7.0
2017-07-26T08:32:51.468Z,6.9
2017-07-26T08:33:32.468Z,7.4
2017-07-26T08:34:13.566Z,8.6
2017-07-26T08:34:56.852Z,7.2
2017-07-26T08:35:37.956Z,5.2
2017-07-26T08:36:18.957Z,8.8
2017-07-26T08:36:59.957Z,5.6
2017-07-26T08:37:40.865Z,5.1
2017-07-26T08:38:21.867Z,7.0
2017-07-26T08:39:02.869Z,5.9
2017-07-26T08:39:43.872Z,4.8
2017-07-26T08:40:25.074Z,6.9
2017-07-26T08:41:05.972Z,5.7
2017-07-26T08:41:46.980Z,6.0
2017-07-26T08:42:27.975Z,6.4
2017-07-26T08:43:08.878Z,6.6
2017-07-26T08:43:49.877Z,7.8
2017-07-26T08:44:30.880Z,7.5
2017-07-26T08:45:11.879Z,8.1
2017-07-26T08:45:53.194Z,6.6
2017-07-26T08:46:34.205Z,5.4
2017-07-26T08:47:15.208Z,7.5
2017-07-26T08:47:56.213Z,12.3
2017-07-26T08:48:37.217Z,9.4
2017-07-26T08:49:18.323Z,9.0
2017-07-26T08:49:59.525Z,8.4
2017-07-26T08:50:40.632Z,7.0
2017-07-26T08:51:21.734Z,5.5
2017-07-26T08:52:02.664Z,6.0
2017-07-26T08:52:43.673Z,8.8
2017-07-26T08:53:24.576Z,9.4
2017-07-26T08:54:05.690Z,5.5
2017-07-26T08:54:46.602Z,6.1
2017-07-26T08:55:27.601Z,4.4
2017-07-26T08:56:08.617Z,4.0
2017-07-26T08:56:49.524Z,4.8
2017-07-26T08:57:30.645Z,5.1
2017-07-26T08:58:11.762Z,8.9
2017-07-26T08:58:52.767Z,6.5
2017-07-26T08:59:33.873Z,7.6
2017-07-26T09:00:14.982Z,7.5
2017-07-26T09:00:55.990Z,5.2
2017-07-26T09:01:37.099Z,4.8
2017-07-26T09:02:18.021Z,5.7
2017-07-26T09:02:59.027Z,8.0
2017-07-26T09:03:39.934Z,7.6
2017-07-26T09:04:20.950Z,5.9
2017-07-26T09:05:01.855Z,5.1
2017-07-26T09:05:42.865Z,5.9
2017-07-26T09:06:23.774Z,6.4
2017-07-26T09:07:04.786Z,6.4
2017-07-26T09:07:45.783Z,7.0
2017-07-26T09:08:26.691Z,7.7